Indian River, MI (49749)

5:57 AM EDT on April 27, 2017 (GMT -0400)
Maple Bay | | Change Station

Elev 617 ft 45.49 °N, 84.71 °W | Updated 24 seconds ago

Mostly Cloudy
Mostly Cloudy
51.8 °F
Feels Like 51.8 °F
N
0.0
Wind Variable Wind from North
Gusts 0.0 mph

Today
High -- | Low -- °F
--% Chance of Precip.
Yesterday
High -- | Low -- °F
Precip. -- in
Pressure 29.38 in
Visibility 6.0 miles
Clouds Few 9000 ft
Dew Point 50 °F
Humidity 94%
Rainfall 0.11 in
Snow Depth Not available.
6:32 AM 8:40 PM
New Moon, 1% visible
METAR KPLN 270954Z AUTO 00000KT 6SM BR FEW090 11/09 A2938 RMK AO2 SLP949 T01060089
Pressure 29.38 in
Visibility 6.0 miles
Clouds Few 9000 ft
Dew Point 50 °F
Humidity 94%
Rainfall 0.11 in
Snow Depth Not available.
6:32 AM 8:40 PM
New Moon, 1% visible
METAR KPLN 270954Z AUTO 00000KT 6SM BR FEW090 11/09 A2938 RMK AO2 SLP949 T01060089

Get Severe Weather Alerts

Thanks for signing up!

Be on the lookout for a verification email in your inbox.

You'll start receiving the daily forecast at 8 AM.

×

10-Day Weather Forecast

Almanac

Astronomy

Apr. 27, 2017 Rise Set
Actual Time
Civil Twilight
Nautical Twilight
Astronomical Twilight
Moon
Length of Visible Light
Length of Day
Tomorrow will be .
, % of the Moon is Illuminated

Today's Extremes

State Highs State Lows

Community

WunderPhotos

WunderBlog® & News

Nearby

Air Quality

  Air Quality AQ Index Pollutant
Not available.

Snow Depth

Station Depth Elevation

Earthquake Activity

City Distance Mag. Time & Date
Minimum magnitude displayed is 2.5.

Coastal Water Temperatures

Place Temperature

Stations

Nearby Weather Stations

Station Location Temp. Windchill Dew Point Humidity Wind Precip. Elev Updated Type
                   

Watches & Warnings

There are currently no watches in effect.